sensor_id;sensor_type;location;lat;lon;timestamp;pressure;altitude;pressure_sealevel;temperature;humidity
77793;BME280;66983;51.438;5.438;2023-07-02T00:00:29;100632.47;;;17.94;73.48
77793;BME280;66983;51.438;5.438;2023-07-02T00:02:54;100633.59;;;17.91;74.25
77793;BME280;66983;51.438;5.438;2023-07-02T00:05:20;100617.63;;;17.88;74.78
77793;BME280;66983;51.438;5.438;2023-07-02T00:07:45;100619.34;;;17.89;74.67
77793;BME280;66983;51.438;5.438;2023-07-02T00:10:11;100621.28;;;17.87;73.18
77793;BME280;66983;51.438;5.438;2023-07-02T00:12:37;100615.91;;;17.87;74.63
77793;BME280;66983;51.438;5.438;2023-07-02T00:15:02;100620.53;;;17.85;73.12
77793;BME280;66983;51.438;5.438;2023-07-02T00:17:28;100623.34;;;17.84;73.92
77793;BME280;66983;51.438;5.438;2023-07-02T00:19:54;100622.59;;;17.82;74.30
77793;BME280;66983;51.438;5.438;2023-07-02T00:22:20;100614.72;;;17.79;75.24
77793;BME280;66983;51.438;5.438;2023-07-02T00:24:46;100619.47;;;17.75;73.67
77793;BME280;66983;51.438;5.438;2023-07-02T00:27:12;100624.09;;;17.73;73.94
77793;BME280;66983;51.438;5.438;2023-07-02T00:29:37;100617.00;;;17.72;73.48
77793;BME280;66983;51.438;5.438;2023-07-02T00:32:03;100622.50;;;17.71;74.41
77793;BME280;66983;51.438;5.438;2023-07-02T00:34:29;100611.59;;;17.72;73.92
77793;BME280;66983;51.438;5.438;2023-07-02T00:36:55;100614.50;;;17.69;74.88
77793;BME280;66983;51.438;5.438;2023-07-02T00:39:20;100622.59;;;17.69;73.64
77793;BME280;66983;51.438;5.438;2023-07-02T00:41:46;100608.50;;;17.66;73.56
77793;BME280;66983;51.438;5.438;2023-07-02T00:44:12;100615.75;;;17.65;74.94
77793;BME280;66983;51.438;5.438;2023-07-02T00:46:38;100612.25;;;17.63;73.66
77793;BME280;66983;51.438;5.438;2023-07-02T00:49:04;100615.91;;;17.62;73.81
77793;BME280;66983;51.438;5.438;2023-07-02T00:51:31;100618.72;;;17.60;73.72
77793;BME280;66983;51.438;5.438;2023-07-02T00:53:58;100620.56;;;17.60;74.22
77793;BME280;66983;51.438;5.438;2023-07-02T00:56:25;100620.66;;;17.58;74.06
77793;BME280;66983;51.438;5.438;2023-07-02T00:58:55;100624.44;;;17.56;73.68
77793;BME280;66983;51.438;5.438;2023-07-02T01:01:26;100625.41;;;17.55;74.41
77793;BME280;66983;51.438;5.438;2023-07-02T01:03:59;100622.81;;;17.53;74.03
77793;BME280;66983;51.438;5.438;2023-07-02T01:06:27;100627.47;;;17.51;74.37
77793;BME280;66983;51.438;5.438;2023-07-02T01:08:55;100627.56;;;17.50;74.12
77793;BME280;66983;51.438;5.438;2023-07-02T01:11:25;100635.75;;;17.48;74.71
77793;BME280;66983;51.438;5.438;2023-07-02T01:13:58;100630.38;;;17.48;74.34
77793;BME280;66983;51.438;5.438;2023-07-02T01:16:25;100630.47;;;17.47;74.45
77793;BME280;66983;51.438;5.438;2023-07-02T01:18:53;100636.81;;;17.46;74.64
77793;BME280;66983;51.438;5.438;2023-07-02T01:21:21;100631.66;;;17.43;73.92
77793;BME280;66983;51.438;5.438;2023-07-02T01:23:48;100634.59;;;17.40;73.95
77793;BME280;66983;51.438;5.438;2023-07-02T01:26:14;100646.34;;;17.39;75.42
77793;BME280;66983;51.438;5.438;2023-07-02T01:28:39;100649.13;;;17.37;74.14
77793;BME280;66983;51.438;5.438;2023-07-02T01:31:05;100652.69;;;17.38;75.10
77793;BME280;66983;51.438;5.438;2023-07-02T01:33:33;100647.31;;;17.38;74.14
77793;BME280;66983;51.438;5.438;2023-07-02T01:35:58;100651.06;;;17.35;75.67
77793;BME280;66983;51.438;5.438;2023-07-02T01:38:24;100653.00;;;17.33;75.92
77793;BME280;66983;51.438;5.438;2023-07-02T01:40:50;100653.97;;;17.32;74.46
77793;BME280;66983;51.438;5.438;2023-07-02T01:43:15;100656.69;;;17.32;75.78
77793;BME280;66983;51.438;5.438;2023-07-02T01:45:41;100658.50;;;17.32;74.07
77793;BME280;66983;51.438;5.438;2023-07-02T01:48:07;100652.38;;;17.29;75.73
77793;BME280;66983;51.438;5.438;2023-07-02T01:50:33;100662.38;;;17.27;75.92
77793;BME280;66983;51.438;5.438;2023-07-02T01:52:59;100655.47;;;17.23;74.79
77793;BME280;66983;51.438;5.438;2023-07-02T01:55:25;100660.88;;;17.23;75.67
77793;BME280;66983;51.438;5.438;2023-07-02T01:57:51;100657.19;;;17.24;76.49
77793;BME280;66983;51.438;5.438;2023-07-02T02:00:16;100659.03;;;17.24;76.40
77793;BME280;66983;51.438;5.438;2023-07-02T02:02:43;100660.88;;;17.23;76.05
77793;BME280;66983;51.438;5.438;2023-07-02T02:05:09;100662.69;;;17.23;76.96
77793;BME280;66983;51.438;5.438;2023-07-02T02:07:36;100664.53;;;17.22;75.79
77793;BME280;66983;51.438;5.438;2023-07-02T02:10:02;100662.81;;;17.21;76.03
77793;BME280;66983;51.438;5.438;2023-07-02T02:12:29;100663.78;;;17.20;75.15
77793;BME280;66983;51.438;5.438;2023-07-02T02:14:56;100662.91;;;17.20;75.97
77793;BME280;66983;51.438;5.438;2023-07-02T02:17:22;100671.94;;;17.19;77.44
77793;BME280;66983;51.438;5.438;2023-07-02T02:19:49;100667.44;;;17.19;77.50
77793;BME280;66983;51.438;5.438;2023-07-02T02:22:15;100671.19;;;17.17;76.85
77793;BME280;66983;51.438;5.438;2023-07-02T02:24:41;100662.38;;;17.15;76.33
77793;BME280;66983;51.438;5.438;2023-07-02T02:27:07;100663.22;;;17.15;76.52
77793;BME280;66983;51.438;5.438;2023-07-02T02:29:32;100666.91;;;17.14;76.03
77793;BME280;66983;51.438;5.438;2023-07-02T02:31:58;100665.19;;;17.13;76.51
77793;BME280;66983;51.438;5.438;2023-07-02T02:34:24;100666.03;;;17.14;77.64
77793;BME280;66983;51.438;5.438;2023-07-02T02:36:49;100667.44;;;17.07;76.44
77793;BME280;66983;51.438;5.438;2023-07-02T02:39:15;100672.06;;;17.05;77.67
77793;BME280;66983;51.438;5.438;2023-07-02T02:41:41;100666.00;;;17.01;77.03
77793;BME280;66983;51.438;5.438;2023-07-02T02:44:06;100672.38;;;17.00;77.33
77793;BME280;66983;51.438;5.438;2023-07-02T02:46:32;100684.19;;;16.98;78.41
77793;BME280;66983;51.438;5.438;2023-07-02T02:48:58;100684.31;;;16.96;78.42
77793;BME280;66983;51.438;5.438;2023-07-02T02:51:24;100680.97;;;16.92;78.61
77793;BME280;66983;51.438;5.438;2023-07-02T02:53:50;100681.81;;;16.93;77.69
77793;BME280;66983;51.438;5.438;2023-07-02T02:56:15;100693.66;;;16.90;77.77
77793;BME280;66983;51.438;5.438;2023-07-02T02:58:41;100686.69;;;16.88;77.91
77793;BME280;66983;51.438;5.438;2023-07-02T03:01:07;100692.78;;;16.90;77.98
77793;BME280;66983;51.438;5.438;2023-07-02T03:03:39;100699.28;;;16.87;78.58
77793;BME280;66983;51.438;5.438;2023-07-02T03:06:10;100707.66;;;16.83;78.07
77793;BME280;66983;51.438;5.438;2023-07-02T03:08:36;100708.81;;;16.79;77.57
77793;BME280;66983;51.438;5.438;2023-07-02T03:11:01;100708.06;;;16.77;77.87
77793;BME280;66983;51.438;5.438;2023-07-02T03:13:27;100709.97;;;16.75;78.49
77793;BME280;66983;51.438;5.438;2023-07-02T03:15:52;100709.22;;;16.73;78.19
77793;BME280;66983;51.438;5.438;2023-07-02T03:18:18;100710.38;;;16.69;78.83
77793;BME280;66983;51.438;5.438;2023-07-02T03:20:44;100713.38;;;16.64;78.69
77793;BME280;66983;51.438;5.438;2023-07-02T03:23:09;100710.78;;;16.62;78.53
77793;BME280;66983;51.438;5.438;2023-07-02T03:25:35;100712.91;;;16.57;77.08
77793;BME280;66983;51.438;5.438;2023-07-02T03:28:00;100714.84;;;16.55;77.24
77793;BME280;66983;51.438;5.438;2023-07-02T03:30:26;100719.44;;;16.53;77.49
77793;BME280;66983;51.438;5.438;2023-07-02T03:32:51;100723.09;;;16.52;77.51
77793;BME280;66983;51.438;5.438;2023-07-02T03:35:17;100727.53;;;16.53;77.34
77793;BME280;66983;51.438;5.438;2023-07-02T03:37:42;100728.50;;;16.52;77.03
77793;BME280;66983;51.438;5.438;2023-07-02T03:40:09;100725.69;;;16.54;77.21
77793;BME280;66983;51.438;5.438;2023-07-02T03:42:35;100728.38;;;16.54;77.08
77793;BME280;66983;51.438;5.438;2023-07-02T03:45:00;100740.97;;;16.53;76.44
77793;BME280;66983;51.438;5.438;2023-07-02T03:47:26;100733.88;;;16.52;76.19
77793;BME280;66983;51.438;5.438;2023-07-02T03:49:51;100734.06;;;16.49;75.25
77793;BME280;66983;51.438;5.438;2023-07-02T03:52:17;100743.19;;;16.47;75.07
77793;BME280;66983;51.438;5.438;2023-07-02T03:54:42;100740.59;;;16.45;75.16
77793;BME280;66983;51.438;5.438;2023-07-02T03:57:08;100742.53;;;16.43;75.07
77793;BME280;66983;51.438;5.438;2023-07-02T03:59:34;100743.50;;;16.42;75.52
77793;BME280;66983;51.438;5.438;2023-07-02T04:02:00;100744.66;;;16.38;74.95
77793;BME280;66983;51.438;5.438;2023-07-02T04:04:25;100754.44;;;16.39;75.25
77793;BME280;66983;51.438;5.438;2023-07-02T04:06:52;100750.03;;;16.38;76.57
77793;BME280;66983;51.438;5.438;2023-07-02T04:09:17;100755.53;;;16.37;75.49
77793;BME280;66983;51.438;5.438;2023-07-02T04:11:44;100752.84;;;16.37;76.00
77793;BME280;66983;51.438;5.438;2023-07-02T04:14:09;100751.97;;;16.36;76.57
77793;BME280;66983;51.438;5.438;2023-07-02T04:16:35;100754.78;;;16.35;75.63
77793;BME280;66983;51.438;5.438;2023-07-02T04:19:00;100756.59;;;16.34;76.92
77793;BME280;66983;51.438;5.438;2023-07-02T04:21:26;100757.56;;;16.33;76.74
77793;BME280;66983;51.438;5.438;2023-07-02T04:23:51;100756.69;;;16.33;77.06
77793;BME280;66983;51.438;5.438;2023-07-02T04:26:17;100763.91;;;16.32;75.92
77793;BME280;66983;51.438;5.438;2023-07-02T04:28:43;100766.59;;;16.32;76.67
77793;BME280;66983;51.438;5.438;2023-07-02T04:31:09;100764.66;;;16.34;76.58
77793;BME280;66983;51.438;5.438;2023-07-02T04:33:34;100770.03;;;16.34;76.96
77793;BME280;66983;51.438;5.438;2023-07-02T04:36:02;100763.72;;;16.35;75.86
77793;BME280;66983;51.438;5.438;2023-07-02T04:38:28;100765.63;;;16.33;76.39
77793;BME280;66983;51.438;5.438;2023-07-02T04:40:54;100767.25;;;16.36;76.10
77793;BME280;66983;51.438;5.438;2023-07-02T04:43:22;100773.50;;;16.36;76.31
77793;BME280;66983;51.438;5.438;2023-07-02T04:45:49;100769.63;;;16.40;74.54
77793;BME280;66983;51.438;5.438;2023-07-02T04:48:14;100769.53;;;16.42;75.32
77793;BME280;66983;51.438;5.438;2023-07-02T04:50:41;100771.94;;;16.46;74.27
77793;BME280;66983;51.438;5.438;2023-07-02T04:53:07;100780.38;;;16.54;73.83
77793;BME280;66983;51.438;5.438;2023-07-02T04:55:32;100776.63;;;16.57;73.23
77793;BME280;66983;51.438;5.438;2023-07-02T04:57:58;100780.38;;;16.69;72.54
77793;BME280;66983;51.438;5.438;2023-07-02T05:00:23;100781.91;;;16.73;71.97
77793;BME280;66983;51.438;5.438;2023-07-02T05:02:49;100787.28;;;16.73;71.49
77793;BME280;66983;51.438;5.438;2023-07-02T05:05:16;100787.28;;;16.73;71.14
77793;BME280;66983;51.438;5.438;2023-07-02T05:07:41;100779.88;;;16.76;70.98
77793;BME280;66983;51.438;5.438;2023-07-02T05:10:07;100800.25;;;16.80;70.90
77793;BME280;66983;51.438;5.438;2023-07-02T05:12:33;100788.81;;;16.77;69.44
77793;BME280;66983;51.438;5.438;2023-07-02T05:14:58;100793.91;;;16.81;69.53
77793;BME280;66983;51.438;5.438;2023-07-02T05:17:24;100787.34;;;16.85;69.27
77793;BME280;66983;51.438;5.438;2023-07-02T05:19:49;100794.91;;;16.93;68.10
77793;BME280;66983;51.438;5.438;2023-07-02T05:22:15;100797.41;;;16.96;67.91
77793;BME280;66983;51.438;5.438;2023-07-02T05:24:41;100809.13;;;16.95;66.03
77793;BME280;66983;51.438;5.438;2023-07-02T05:27:06;100816.25;;;16.96;65.68
77793;BME280;66983;51.438;5.438;2023-07-02T05:29:32;100810.19;;;16.92;66.05
77793;BME280;66983;51.438;5.438;2023-07-02T05:31:57;100821.63;;;16.96;65.10
77793;BME280;66983;51.438;5.438;2023-07-02T05:34:23;100823.06;;;17.02;66.60
77793;BME280;66983;51.438;5.438;2023-07-02T05:36:48;100823.31;;;17.11;66.05
77793;BME280;66983;51.438;5.438;2023-07-02T05:39:14;100816.34;;;17.21;66.48
77793;BME280;66983;51.438;5.438;2023-07-02T05:41:39;100815.06;;;17.27;64.27
77793;BME280;66983;51.438;5.438;2023-07-02T05:44:05;100825.53;;;17.32;64.20
77793;BME280;66983;51.438;5.438;2023-07-02T05:46:30;100827.94;;;17.36;64.06
77793;BME280;66983;51.438;5.438;2023-07-02T05:48:56;100828.59;;;17.40;63.79
77793;BME280;66983;51.438;5.438;2023-07-02T05:51:25;100824.81;;;17.42;63.37
77793;BME280;66983;51.438;5.438;2023-07-02T05:53:51;100838.94;;;17.46;63.45
77793;BME280;66983;51.438;5.438;2023-07-02T05:56:17;100837.00;;;17.48;63.22
77793;BME280;66983;51.438;5.438;2023-07-02T05:58:43;100843.31;;;17.61;61.87
77793;BME280;66983;51.438;5.438;2023-07-02T06:01:08;100839.47;;;17.65;62.70
77793;BME280;66983;51.438;5.438;2023-07-02T06:03:34;100844.63;;;17.68;61.22
77793;BME280;66983;51.438;5.438;2023-07-02T06:05:59;100847.31;;;17.68;62.12
77793;BME280;66983;51.438;5.438;2023-07-02T06:08:25;100849.72;;;17.73;61.84
77793;BME280;66983;51.438;5.438;2023-07-02T06:10:51;100853.72;;;17.80;60.76
77793;BME280;66983;51.438;5.438;2023-07-02T06:13:16;100856.75;;;17.88;61.18
77793;BME280;66983;51.438;5.438;2023-07-02T06:15:43;100855.59;;;17.92;60.61
77793;BME280;66983;51.438;5.438;2023-07-02T06:18:09;100854.25;;;17.97;60.28
77793;BME280;66983;51.438;5.438;2023-07-02T06:20:37;100858.38;;;18.03;59.49
77793;BME280;66983;51.438;5.438;2023-07-02T06:23:02;100857.09;;;18.09;59.89
77793;BME280;66983;51.438;5.438;2023-07-02T06:25:28;100849.75;;;18.11;59.71
77793;BME280;66983;51.438;5.438;2023-07-02T06:27:54;100858.63;;;18.13;59.86
77793;BME280;66983;51.438;5.438;2023-07-02T06:30:23;100853.00;;;18.16;58.87
77793;BME280;66983;51.438;5.438;2023-07-02T06:32:49;100867.25;;;18.18;58.69
77793;BME280;66983;51.438;5.438;2023-07-02T06:35:14;100865.53;;;18.17;60.63
77793;BME280;66983;51.438;5.438;2023-07-02T06:37:40;100862.81;;;18.17;57.82
77793;BME280;66983;51.438;5.438;2023-07-02T06:40:06;100871.69;;;18.19;58.80
77793;BME280;66983;51.438;5.438;2023-07-02T06:42:32;100874.13;;;18.22;59.60
77793;BME280;66983;51.438;5.438;2023-07-02T06:44:58;100872.94;;;18.26;58.42
77793;BME280;66983;51.438;5.438;2023-07-02T06:47:24;100872.63;;;18.30;58.58
77793;BME280;66983;51.438;5.438;2023-07-02T06:49:51;100876.06;;;18.45;58.60
77793;BME280;66983;51.438;5.438;2023-07-02T06:52:17;100870.78;;;18.56;57.21
77793;BME280;66983;51.438;5.438;2023-07-02T06:54:44;100876.84;;;18.60;56.33
77793;BME280;66983;51.438;5.438;2023-07-02T06:57:09;100891.75;;;18.66;59.04
77793;BME280;66983;51.438;5.438;2023-07-02T06:59:35;100891.28;;;18.72;57.89
77793;BME280;66983;51.438;5.438;2023-07-02T07:02:02;100885.88;;;18.72;57.25
77793;BME280;66983;51.438;5.438;2023-07-02T07:04:27;100890.09;;;18.76;57.06
77793;BME280;66983;51.438;5.438;2023-07-02T07:06:54;100898.41;;;18.73;57.09
77793;BME280;66983;51.438;5.438;2023-07-02T07:09:21;100897.97;;;18.79;57.36
77793;BME280;66983;51.438;5.438;2023-07-02T07:11:47;100907.38;;;18.86;57.41
77793;BME280;66983;51.438;5.438;2023-07-02T07:14:13;100904.03;;;18.82;56.22
77793;BME280;66983;51.438;5.438;2023-07-02T07:16:39;100907.38;;;18.86;57.76
77793;BME280;66983;51.438;5.438;2023-07-02T07:19:05;100892.56;;;18.91;59.21
77793;BME280;66983;51.438;5.438;2023-07-02T07:21:31;100901.06;;;18.98;57.24
77793;BME280;66983;51.438;5.438;2023-07-02T07:23:57;100915.69;;;18.95;56.15
77793;BME280;66983;51.438;5.438;2023-07-02T07:26:22;100904.31;;;19.03;55.06
77793;BME280;66983;51.438;5.438;2023-07-02T07:28:48;100910.47;;;19.05;55.60
77793;BME280;66983;51.438;5.438;2023-07-02T07:31:13;100918.56;;;19.05;55.52
77793;BME280;66983;51.438;5.438;2023-07-02T07:33:39;100925.47;;;19.09;56.26
77793;BME280;66983;51.438;5.438;2023-07-02T07:36:04;100920.72;;;19.13;55.46
77793;BME280;66983;51.438;5.438;2023-07-02T07:38:30;100927.97;;;19.12;54.53
77793;BME280;66983;51.438;5.438;2023-07-02T07:40:55;100928.72;;;19.14;54.44
77793;BME280;66983;51.438;5.438;2023-07-02T07:43:21;100930.66;;;19.12;53.43
77793;BME280;66983;51.438;5.438;2023-07-02T07:45:46;100926.97;;;19.13;54.85
77793;BME280;66983;51.438;5.438;2023-07-02T07:48:12;100937.78;;;19.13;56.29
77793;BME280;66983;51.438;5.438;2023-07-02T07:50:38;100927.75;;;19.15;54.91
77793;BME280;66983;51.438;5.438;2023-07-02T07:53:03;100932.16;;;19.16;54.71
77793;BME280;66983;51.438;5.438;2023-07-02T07:55:29;100935.63;;;19.18;53.91
77793;BME280;66983;51.438;5.438;2023-07-02T07:57:54;100940.81;;;19.21;55.09
77793;BME280;66983;51.438;5.438;2023-07-02T08:00:20;100939.47;;;19.27;54.26
77793;BME280;66983;51.438;5.438;2023-07-02T08:02:46;100936.25;;;19.22;54.78
77793;BME280;66983;51.438;5.438;2023-07-02T08:05:12;100938.44;;;19.17;53.15
77793;BME280;66983;51.438;5.438;2023-07-02T08:07:39;100933.13;;;19.15;55.27
77793;BME280;66983;51.438;5.438;2023-07-02T08:10:05;100929.63;;;19.26;53.29
77793;BME280;66983;51.438;5.438;2023-07-02T08:12:33;100937.47;;;19.42;53.20
77793;BME280;66983;51.438;5.438;2023-07-02T08:14:59;100939.31;;;19.41;53.28
77793;BME280;66983;51.438;5.438;2023-07-02T08:17:25;100943.09;;;19.51;54.52
77793;BME280;66983;51.438;5.438;2023-07-02T08:19:51;100945.88;;;19.62;53.75
77793;BME280;66983;51.438;5.438;2023-07-02T08:22:16;100952.13;;;19.63;52.06
77793;BME280;66983;51.438;5.438;2023-07-02T08:24:42;100951.56;;;19.71;53.44
77793;BME280;66983;51.438;5.438;2023-07-02T08:27:08;100949.88;;;19.81;52.48
77793;BME280;66983;51.438;5.438;2023-07-02T08:29:33;100950.91;;;19.91;53.04
77793;BME280;66983;51.438;5.438;2023-07-02T08:31:59;100951.56;;;20.06;52.29
77793;BME280;66983;51.438;5.438;2023-07-02T08:34:24;100954.28;;;20.06;51.56
77793;BME280;66983;51.438;5.438;2023-07-02T08:36:50;100957.22;;;20.03;51.98
77793;BME280;66983;51.438;5.438;2023-07-02T08:39:17;100967.47;;;20.10;52.74
77793;BME280;66983;51.438;5.438;2023-07-02T08:41:47;100962.69;;;20.14;51.77
77793;BME280;66983;51.438;5.438;2023-07-02T08:44:17;100967.47;;;20.10;51.74
77793;BME280;66983;51.438;5.438;2023-07-02T08:46:44;100970.78;;;20.14;52.03
77793;BME280;66983;51.438;5.438;2023-07-02T08:49:10;100979.56;;;20.17;52.46
77793;BME280;66983;51.438;5.438;2023-07-02T08:51:36;100963.78;;;20.11;50.94
77793;BME280;66983;51.438;5.438;2023-07-02T08:54:02;100966.13;;;20.16;52.46
77793;BME280;66983;51.438;5.438;2023-07-02T08:56:29;100977.34;;;20.22;51.46
77793;BME280;66983;51.438;5.438;2023-07-02T08:58:54;100970.59;;;20.28;51.02
77793;BME280;66983;51.438;5.438;2023-07-02T09:01:20;100978.22;;;20.34;51.59
77793;BME280;66983;51.438;5.438;2023-07-02T09:03:45;100965.00;;;20.42;49.76
77793;BME280;66983;51.438;5.438;2023-07-02T09:06:12;100970.53;;;20.41;48.71
77793;BME280;66983;51.438;5.438;2023-07-02T09:08:38;100966.44;;;20.35;47.88
77793;BME280;66983;51.438;5.438;2023-07-02T09:11:07;100975.38;;;20.48;47.24
77793;BME280;66983;51.438;5.438;2023-07-02T09:13:43;100972.53;;;20.50;46.06
77793;BME280;66983;51.438;5.438;2023-07-02T09:16:21;100965.28;;;20.50;47.43
77793;BME280;66983;51.438;5.438;2023-07-02T09:18:55;100980.50;;;20.40;46.57
77793;BME280;66983;51.438;5.438;2023-07-02T09:21:21;100970.47;;;20.29;46.20
77793;BME280;66983;51.438;5.438;2023-07-02T09:23:48;100968.84;;;20.27;46.58
77793;BME280;66983;51.438;5.438;2023-07-02T09:26:23;100974.53;;;20.24;48.06
77793;BME280;66983;51.438;5.438;2023-07-02T09:28:49;100969.59;;;20.29;49.41
77793;BME280;66983;51.438;5.438;2023-07-02T09:31:15;100979.44;;;20.30;49.09
77793;BME280;66983;51.438;5.438;2023-07-02T09:33:41;100967.88;;;20.28;49.18
77793;BME280;66983;51.438;5.438;2023-07-02T09:36:06;100961.00;;;20.24;47.30
77793;BME280;66983;51.438;5.438;2023-07-02T09:38:32;100960.34;;;20.44;48.08
77793;BME280;66983;51.438;5.438;2023-07-02T09:40:59;100956.16;;;20.62;47.37
77793;BME280;66983;51.438;5.438;2023-07-02T09:43:25;100967.88;;;20.63;44.59
77793;BME280;66983;51.438;5.438;2023-07-02T09:45:54;100966.13;;;20.62;45.19
77793;BME280;66983;51.438;5.438;2023-07-02T09:48:24;100963.78;;;20.57;47.02
77793;BME280;66983;51.438;5.438;2023-07-02T09:50:54;100964.53;;;20.59;46.80
77793;BME280;66983;51.438;5.438;2023-07-02T09:53:20;100974.88;;;20.54;46.54
77793;BME280;66983;51.438;5.438;2023-07-02T09:55:45;100971.41;;;20.41;46.48
77793;BME280;66983;51.438;5.438;2023-07-02T09:58:11;100972.31;;;20.29;47.50
77793;BME280;66983;51.438;5.438;2023-07-02T10:00:39;100980.66;;;20.15;47.90
77793;BME280;66983;51.438;5.438;2023-07-02T10:03:06;100976.78;;;20.06;48.95
77793;BME280;66983;51.438;5.438;2023-07-02T10:05:33;100976.28;;;20.01;48.88
77793;BME280;66983;51.438;5.438;2023-07-02T10:08:14;100990.53;;;20.03;50.08
77793;BME280;66983;51.438;5.438;2023-07-02T10:10:42;100988.81;;;20.02;49.15
77793;BME280;66983;51.438;5.438;2023-07-02T10:13:08;100994.19;;;20.15;48.67
77793;BME280;66983;51.438;5.438;2023-07-02T10:15:33;101004.78;;;20.29;50.32
77793;BME280;66983;51.438;5.438;2023-07-02T10:18:03;101003.59;;;20.33;48.33
77793;BME280;66983;51.438;5.438;2023-07-02T10:20:38;100991.56;;;20.37;46.29
77793;BME280;66983;51.438;5.438;2023-07-02T10:23:06;100997.06;;;20.36;47.87
77793;BME280;66983;51.438;5.438;2023-07-02T10:25:36;100995.81;;;20.52;46.56
77793;BME280;66983;51.438;5.438;2023-07-02T10:28:23;100989.41;;;20.64;46.32
77793;BME280;66983;51.438;5.438;2023-07-02T10:30:52;100985.97;;;20.62;46.17
77793;BME280;66983;51.438;5.438;2023-07-02T10:33:19;101005.06;;;20.72;45.19
77793;BME280;66983;51.438;5.438;2023-07-02T10:35:48;101003.19;;;20.61;45.02
77793;BME280;66983;51.438;5.438;2023-07-02T10:40:44;101003.78;;;20.43;46.10
77793;BME280;66983;51.438;5.438;2023-07-02T10:43:09;101009.94;;;20.45;47.34
77793;BME280;66983;51.438;5.438;2023-07-02T10:45:35;101006.84;;;20.38;46.40
77793;BME280;66983;51.438;5.438;2023-07-02T10:48:09;101014.41;;;20.33;46.86
77793;BME280;66983;51.438;5.438;2023-07-02T10:50:34;101013.00;;;20.40;48.10
77793;BME280;66983;51.438;5.438;2023-07-02T10:53:00;101023.38;;;20.46;47.06
77793;BME280;66983;51.438;5.438;2023-07-02T10:55:26;101007.13;;;20.46;46.94
77793;BME280;66983;51.438;5.438;2023-07-02T10:58:07;101002.94;;;20.53;47.19
77793;BME280;66983;51.438;5.438;2023-07-02T11:00:43;100999.91;;;20.80;47.44
77793;BME280;66983;51.438;5.438;2023-07-02T11:03:19;100997.34;;;21.01;47.82
77793;BME280;66983;51.438;5.438;2023-07-02T11:05:46;100998.56;;;21.19;47.03
77793;BME280;66983;51.438;5.438;2023-07-02T11:08:12;100996.47;;;21.34;45.96
77793;BME280;66983;51.438;5.438;2023-07-02T11:10:38;101000.19;;;21.44;46.80
77793;BME280;66983;51.438;5.438;2023-07-02T11:13:15;100993.75;;;21.45;46.57
77793;BME280;66983;51.438;5.438;2023-07-02T11:15:41;100994.13;;;21.52;46.71
77793;BME280;66983;51.438;5.438;2023-07-02T11:18:11;101006.22;;;21.48;45.00
77793;BME280;66983;51.438;5.438;2023-07-02T11:20:36;101008.94;;;21.48;45.65
77793;BME280;66983;51.438;5.438;2023-07-02T11:23:02;101011.88;;;21.45;46.31
77793;BME280;66983;51.438;5.438;2023-07-02T11:25:27;101002.09;;;21.64;46.46
77793;BME280;66983;51.438;5.438;2023-07-02T11:28:03;100995.53;;;21.78;46.89
77793;BME280;66983;51.438;5.438;2023-07-02T11:30:29;100987.09;;;22.04;45.54
77793;BME280;66983;51.438;5.438;2023-07-02T11:32:55;100998.03;;;22.13;45.24
77793;BME280;66983;51.438;5.438;2023-07-02T11:35:21;100996.91;;;22.16;45.71
77793;BME280;66983;51.438;5.438;2023-07-02T11:37:48;100992.59;;;22.13;44.72
77793;BME280;66983;51.438;5.438;2023-07-02T11:40:19;100991.28;;;22.08;44.99
77793;BME280;66983;51.438;5.438;2023-07-02T11:42:45;100997.34;;;21.89;45.96
77793;BME280;66983;51.438;5.438;2023-07-02T11:45:11;100993.91;;;21.87;46.21
77793;BME280;66983;51.438;5.438;2023-07-02T11:47:38;100997.22;;;21.90;45.13
77793;BME280;66983;51.438;5.438;2023-07-02T11:50:04;100997.03;;;21.82;47.01
77793;BME280;66983;51.438;5.438;2023-07-02T11:52:29;100994.81;;;21.76;47.22
77793;BME280;66983;51.438;5.438;2023-07-02T11:54:55;100994.97;;;21.95;47.72
77793;BME280;66983;51.438;5.438;2023-07-02T11:57:20;100989.00;;;22.13;46.98
77793;BME280;66983;51.438;5.438;2023-07-02T11:59:48;100997.91;;;22.35;45.78
77793;BME280;66983;51.438;5.438;2023-07-02T12:02:15;100995.34;;;22.55;44.46
77793;BME280;66983;51.438;5.438;2023-07-02T12:04:40;100996.94;;;22.57;44.17
77793;BME280;66983;51.438;5.438;2023-07-02T12:07:06;101001.03;;;22.73;42.93
77793;BME280;66983;51.438;5.438;2023-07-02T12:09:31;100994.47;;;22.75;41.33
77793;BME280;66983;51.438;5.438;2023-07-02T12:11:57;100988.28;;;22.73;41.15
77793;BME280;66983;51.438;5.438;2023-07-02T12:14:22;100989.22;;;22.62;40.70
77793;BME280;66983;51.438;5.438;2023-07-02T12:16:48;100998.25;;;22.63;41.32
77793;BME280;66983;51.438;5.438;2023-07-02T12:19:13;100999.03;;;22.75;40.05
77793;BME280;66983;51.438;5.438;2023-07-02T12:21:39;100988.25;;;22.84;38.55
77793;BME280;66983;51.438;5.438;2023-07-02T12:24:05;100986.69;;;22.91;39.96
77793;BME280;66983;51.438;5.438;2023-07-02T12:26:35;100987.34;;;23.05;37.81
77793;BME280;66983;51.438;5.438;2023-07-02T12:29:01;100990.28;;;23.22;38.40
77793;BME280;66983;51.438;5.438;2023-07-02T12:31:26;100981.56;;;23.28;38.05
77793;BME280;66983;51.438;5.438;2023-07-02T12:33:52;100988.78;;;23.49;38.97
77793;BME280;66983;51.438;5.438;2023-07-02T12:36:17;100986.72;;;23.62;38.07
77793;BME280;66983;51.438;5.438;2023-07-02T12:38:43;101000.53;;;23.49;36.21
77793;BME280;66983;51.438;5.438;2023-07-02T12:41:08;101000.47;;;23.30;37.07
77793;BME280;66983;51.438;5.438;2023-07-02T12:43:34;100995.63;;;23.33;36.56
77793;BME280;66983;51.438;5.438;2023-07-02T12:46:00;100998.22;;;23.45;36.86
77793;BME280;66983;51.438;5.438;2023-07-02T12:48:25;101003.66;;;23.45;35.97